Time;durP1;ratioP1;P1;durP2;ratioP2;P2;SDS_P1;SDS_P2;PMS_P1;PMS_P2;Temp;Humidity;BMP_temperature;BMP_pressure;BME280_temperature;BME280_humidity;BME280_pressure;Samples;Min_cycle;Max_cycle;Signal;HPM_P1;HPM_P2
2021/12/05 00:16:58;;;;;;;9.70;2.33;;;4.10;99.90;;;;;;7379110;32;20194;-59
2021/12/05 00:24:34;;;;;;;9.32;2.17;;;3.60;99.90;;;;;;7379579;32;20145;-59
2021/12/05 00:29:03;;;;;;;15.25;2.08;;;3.70;99.90;;;;;;7379738;32;20397;-59
2021/12/05 00:33:43;;;;;;;9.00;2.03;;;3.60;99.90;;;;;;7371829;32;20103;-60
2021/12/05 00:38:14;;;;;;;11.52;2.22;;;3.70;99.90;;;;;;7375364;32;20520;-59
2021/12/05 01:11:48;;;;;;;10.27;1.90;;;4.00;99.90;;;;;;7365635;32;20096;-60
2021/12/05 01:15:51;;;;;;;7.40;1.75;;;4.10;99.90;;;;;;7374097;32;20110;-58
2021/12/05 01:19:53;;;;;;;5.40;1.42;;;4.10;99.90;;;;;;7380548;32;20111;-58
2021/12/05 01:24:12;;;;;;;5.68;1.62;;;4.20;99.90;;;;;;7383043;32;20107;-58
2021/12/05 01:41:06;;;;;;;8.23;1.80;;;4.30;99.90;;;;;;7379385;32;20102;-58
2021/12/05 01:45:57;;;;;;;17.23;2.03;;;4.30;99.90;;;;;;7383863;32;20445;-58
2021/12/05 01:54:39;;;;;;;12.85;2.35;;;4.30;99.90;;;;;;7343587;32;20691;-58
2021/12/05 02:16:17;;;;;;;8.63;1.60;;;4.30;99.90;;;;;;7379475;32;20917;-58
2021/12/05 02:29:33;;;;;;;11.80;2.25;;;4.30;99.90;;;;;;7380577;32;20103;-58
2021/12/05 02:29:44;;;;;;;10.35;1.48;;;4.10;99.90;;;;;;7378245;32;20143;-59
2021/12/05 02:33:55;;;;;;;12.00;1.80;;;4.10;99.90;;;;;;7375186;32;20131;-59
2021/12/05 02:42:32;;;;;;;9.95;1.80;;;4.10;99.90;;;;;;7372803;32;20110;-59
2021/12/05 02:46:34;;;;;;;10.43;1.58;;;4.00;99.90;;;;;;7377657;32;20269;-59
2021/12/05 02:50:37;;;;;;;7.65;1.50;;;4.00;99.90;;;;;;7378811;32;20652;-59
2021/12/05 02:54:46;;;;;;;12.15;1.60;;;3.90;99.90;;;;;;7381395;32;20234;-59
2021/12/05 02:58:54;;;;;;;7.55;1.40;;;4.00;99.90;;;;;;7375930;32;20160;-59
2021/12/05 03:02:57;;;;;;;5.53;1.55;;;4.00;99.90;;;;;;7380215;32;20458;-58
2021/12/05 03:07:05;;;;;;;14.10;2.10;;;4.10;99.90;;;;;;7381316;32;20139;-58
2021/12/05 03:11:07;;;;;;;12.10;1.90;;;4.10;99.90;;;;;;7378117;32;20126;-58
2021/12/05 03:15:11;;;;;;;12.48;2.10;;;4.10;99.90;;;;;;7379256;32;20129;-59
2021/12/05 03:19:15;;;;;;;8.63;1.77;;;4.10;99.90;;;;;;7377802;32;20224;-58
2021/12/05 03:23:17;;;;;;;9.88;1.73;;;4.10;99.90;;;;;;7368005;32;20758;-59
2021/12/05 03:27:18;;;;;;;5.72;1.15;;;4.10;99.90;;;;;;7376486;32;20539;-59
2021/12/05 03:31:21;;;;;;;10.95;1.60;;;4.10;99.90;;;;;;7369667;32;20432;-58
2021/12/05 03:35:28;;;;;;;9.93;1.55;;;4.00;99.90;;;;;;7368345;32;20212;-58
2021/12/05 03:39:31;;;;;;;11.48;1.60;;;3.90;99.90;;;;;;7369435;32;20149;-58
2021/12/05 03:43:34;;;;;;;12.90;2.03;;;4.00;99.90;;;;;;7378910;32;20107;-59
2021/12/05 03:47:37;;;;;;;9.48;1.95;;;4.00;99.90;;;;;;7379594;32;20107;-58
2021/12/05 03:51:44;;;;;;;8.63;1.70;;;3.90;99.90;;;;;;7378262;32;20161;-59
2021/12/05 03:55:49;;;;;;;12.45;2.08;;;3.90;99.90;;;;;;7371242;32;20131;-59
2021/12/05 03:59:51;;;;;;;6.78;1.40;;;3.90;99.90;;;;;;7379363;32;20129;-59
2021/12/05 04:03:53;;;;;;;10.82;1.87;;;3.80;99.90;;;;;;7379021;32;20126;-59
2021/12/05 04:07:55;;;;;;;6.37;1.30;;;3.80;99.90;;;;;;7379405;32;20124;-58
2021/12/05 04:12:00;;;;;;;8.98;1.90;;;3.70;99.90;;;;;;7378853;32;20103;-58
2021/12/05 04:16:05;;;;;;;9.18;1.65;;;3.60;99.90;;;;;;7377108;32;20107;-58
2021/12/05 04:20:09;;;;;;;6.93;1.58;;;3.50;99.90;;;;;;7375022;32;20126;-59
2021/12/05 04:24:13;;;;;;;10.60;1.27;;;3.50;99.90;;;;;;7378882;32;20213;-59
2021/12/05 04:28:16;;;;;;;7.45;1.33;;;3.50;99.90;;;;;;7379607;32;20221;-58
2021/12/05 04:32:17;;;;;;;13.20;1.92;;;3.50;99.90;;;;;;7378570;32;20224;-59
2021/12/05 04:36:20;;;;;;;10.80;1.27;;;3.50;99.90;;;;;;7379781;32;20099;-59
2021/12/05 04:40:22;;;;;;;5.75;1.00;;;3.50;99.90;;;;;;7378793;32;20106;-59
2021/12/05 04:44:24;;;;;;;8.30;0.90;;;3.50;99.90;;;;;;7375135;32;20209;-59
2021/12/05 04:48:26;;;;;;;8.88;1.20;;;3.50;99.90;;;;;;7385081;32;20117;-59
2021/12/05 04:52:28;;;;;;;8.43;1.48;;;3.60;99.90;;;;;;7380476;32;20138;-59
2021/12/05 04:56:31;;;;;;;8.10;1.00;;;3.50;99.90;;;;;;7380319;32;20520;-59
2021/12/05 05:00:41;;;;;;;7.60;1.20;;;3.60;99.90;;;;;;7375163;32;20103;-58
2021/12/05 05:04:46;;;;;;;5.40;1.10;;;3.60;99.90;;;;;;7383575;32;20151;-58
2021/12/05 05:08:52;;;;;;;6.97;1.05;;;3.50;99.90;;;;;;7383603;32;20430;-59
2021/12/05 05:12:55;;;;;;;6.20;1.10;;;3.50;99.90;;;;;;7383472;32;20190;-59
2021/12/05 05:16:57;;;;;;;8.48;1.35;;;3.50;99.90;;;;;;7374048;32;20133;-59
2021/12/05 05:21:09;;;;;;;9.25;1.15;;;3.50;99.90;;;;;;7381985;32;20102;-59
2021/12/05 05:29:52;;;;;;;7.50;1.35;;;3.50;99.90;;;;;;7373744;32;20112;-59
2021/12/05 05:51:28;;;;;;;10.18;1.42;;;3.30;99.90;;;;;;7375133;32;20129;-58
2021/12/05 05:55:30;;;;;;;5.40;1.00;;;3.50;99.90;;;;;;7381419;32;20103;-59
2021/12/05 05:59:42;;;;;;;6.85;1.00;;;3.50;99.90;;;;;;7381300;32;20603;-59
2021/12/05 06:03:44;;;;;;;7.12;1.45;;;3.60;99.90;;;;;;7371205;32;20138;-59
2021/12/05 06:07:46;;;;;;;7.55;1.00;;;3.60;99.90;;;;;;7369280;32;20554;-59
2021/12/05 06:11:48;;;;;;;4.18;1.05;;;3.60;99.90;;;;;;7376400;32;20133;-59
2021/12/05 06:15:51;;;;;;;4.95;1.00;;;3.70;99.90;;;;;;7379545;32;20122;-59
2021/12/05 06:19:54;;;;;;;4.03;1.05;;;3.80;99.90;;;;;;7376765;32;20114;-59
2021/12/05 06:23:56;;;;;;;8.40;1.02;;;3.70;99.90;;;;;;7380141;32;20103;-58
2021/12/05 06:28:02;;;;;;;7.50;1.40;;;3.70;99.90;;;;;;7369643;32;20100;-59
2021/12/05 06:36:47;;;;;;;8.48;1.23;;;3.70;99.90;;;;;;7377411;32;20257;-58
2021/12/05 06:36:56;;;;;;;7.85;1.12;;;3.80;99.90;;;;;;7381306;32;20212;-59
2021/12/05 06:41:13;;;;;;;6.32;1.48;;;3.80;99.90;;;;;;7371734;32;20110;-59
2021/12/05 06:49:42;;;;;;;6.03;1.10;;;3.90;99.90;;;;;;7374235;32;20122;-59
2021/12/05 06:54:03;;;;;;;4.97;0.90;;;3.90;99.90;;;;;;7371480;32;20234;-59
2021/12/05 06:58:05;;;;;;;7.53;1.10;;;3.70;99.90;;;;;;7381229;32;20145;-59
2021/12/05 07:02:09;;;;;;;8.95;1.33;;;3.80;99.90;;;;;;7379788;32;20487;-59
2021/12/05 07:06:30;;;;;;;9.40;1.42;;;3.80;99.90;;;;;;7373059;32;20116;-59
2021/12/05 07:10:37;;;;;;;7.12;1.35;;;3.80;99.90;;;;;;7377735;32;20515;-59
2021/12/05 07:14:50;;;;;;;5.65;1.15;;;3.80;99.90;;;;;;7368210;32;20098;-60
2021/12/05 07:40:31;;;;;;;6.32;1.75;;;3.80;99.90;;;;;;7379758;32;20127;-58
2021/12/05 07:44:33;;;;;;;10.63;1.48;;;3.80;99.90;;;;;;7375267;32;20099;-58
2021/12/05 07:48:40;;;;;;;6.80;1.20;;;3.80;99.90;;;;;;7375731;32;20106;-59
2021/12/05 07:52:46;;;;;;;8.13;1.37;;;3.80;99.90;;;;;;7379369;32;20126;-59
2021/12/05 07:56:53;;;;;;;9.00;1.40;;;3.90;99.90;;;;;;7377719;32;20140;-59
2021/12/05 08:01:28;;;;;;;4.85;1.10;;;3.90;99.90;;;;;;7380138;32;20168;-59
2021/12/05 08:18:23;;;;;;;3.08;1.23;;;4.00;99.90;;;;;;7372426;32;20563;-58
2021/12/05 08:22:25;;;;;;;2.78;1.15;;;4.00;99.90;;;;;;7379130;32;20178;-59
2021/12/05 08:26:32;;;;;;;8.35;1.30;;;4.00;99.90;;;;;;7375588;32;20111;-59
2021/12/05 08:30:36;;;;;;;7.90;1.45;;;4.10;99.90;;;;;;7381642;32;20547;-60
2021/12/05 08:34:52;;;;;;;3.25;1.33;;;4.20;99.90;;;;;;7380385;32;20126;-58
2021/12/05 10:18:02;;;;;;;3.47;1.20;;;4.40;99.90;;;;;;7377853;32;20111;-59
2021/12/05 10:27:22;;;;;;;2.62;1.30;;;4.50;99.90;;;;;;7373080;32;20238;-59
2021/12/05 10:36:27;;;;;;;5.57;1.25;;;4.60;99.90;;;;;;7372717;32;20530;-59
2021/12/05 10:40:34;;;;;;;5.32;1.60;;;4.70;99.90;;;;;;7370055;32;20514;-59
2021/12/05 10:44:45;;;;;;;6.07;1.60;;;4.70;99.90;;;;;;7372056;32;20198;-59
2021/12/05 10:48:55;;;;;;;3.30;0.93;;;4.80;99.90;;;;;;7371002;32;20675;-59
2021/12/05 10:53:36;;;;;;;2.50;1.00;;;5.00;99.90;;;;;;7367927;32;20134;-59
2021/12/05 10:57:48;;;;;;;5.22;1.20;;;5.10;99.90;;;;;;7372560;32;20519;-59
2021/12/05 11:01:53;;;;;;;3.67;1.10;;;5.20;99.90;;;;;;7378021;32;20627;-59
2021/12/05 11:05:54;;;;;;;3.35;1.55;;;5.40;99.90;;;;;;7378394;32;20530;-59
2021/12/05 11:09:59;;;;;;;3.60;1.12;;;5.30;99.90;;;;;;7369623;32;20216;-59
2021/12/05 11:14:04;;;;;;;2.65;1.27;;;5.30;99.90;;;;;;7369866;32;20935;-59
2021/12/05 11:18:06;;;;;;;3.25;1.20;;;5.30;99.90;;;;;;7378376;32;20197;-59
2021/12/05 11:22:16;;;;;;;3.90;1.15;;;5.30;99.90;;;;;;7377712;32;20112;-59
2021/12/05 11:26:19;;;;;;;1.80;0.80;;;5.30;99.90;;;;;;7374789;32;20125;-59
2021/12/05 11:30:26;;;;;;;6.10;1.50;;;5.30;99.90;;;;;;7375978;32;20134;-59
2021/12/05 11:34:29;;;;;;;5.25;1.12;;;5.30;99.90;;;;;;7380002;32;20125;-59
2021/12/05 11:38:32;;;;;;;4.30;1.20;;;5.30;99.90;;;;;;7376009;32;20110;-59
2021/12/05 11:43:01;;;;;;;4.32;1.48;;;5.10;99.90;;;;;;7378785;32;20737;-58
2021/12/05 11:47:15;;;;;;;6.28;1.55;;;5.10;99.90;;;;;;7377708;32;20534;-58
2021/12/05 11:51:41;;;;;;;3.45;1.48;;;5.20;99.90;;;;;;7368891;32;20213;-58
2021/12/05 11:55:42;;;;;;;5.35;1.30;;;5.20;99.90;;;;;;7369372;32;20139;-59
2021/12/05 11:59:56;;;;;;;3.95;1.20;;;5.40;99.90;;;;;;7378668;32;20122;-58
2021/12/05 12:03:58;;;;;;;2.65;1.10;;;5.50;99.90;;;;;;7376117;32;20102;-58
2021/12/05 12:08:07;;;;;;;4.53;1.20;;;5.60;99.90;;;;;;7372691;32;20121;-59
2021/12/05 12:12:09;;;;;;;4.43;1.30;;;5.80;99.90;;;;;;7373502;32;20190;-58
2021/12/05 12:16:12;;;;;;;6.03;1.10;;;5.80;99.90;;;;;;7376321;32;20526;-58
2021/12/05 12:20:21;;;;;;;4.45;1.10;;;5.90;99.90;;;;;;7378745;32;20121;-59
2021/12/05 12:24:23;;;;;;;3.42;1.00;;;6.10;99.90;;;;;;7378340;32;20104;-59
2021/12/05 12:28:26;;;;;;;2.65;1.23;;;6.10;99.90;;;;;;7378643;32;20197;-59
2021/12/05 12:32:33;;;;;;;4.10;1.10;;;6.20;99.90;;;;;;7378879;32;20135;-59
2021/12/05 12:36:44;;;;;;;3.75;1.10;;;6.10;99.90;;;;;;7373865;32;20095;-59
2021/12/05 12:40:50;;;;;;;1.75;1.10;;;5.90;99.90;;;;;;7370520;32;20107;-58
2021/12/05 12:45:24;;;;;;;2.90;1.13;;;5.90;99.90;;;;;;7373362;32;20765;-58
2021/12/05 12:49:35;;;;;;;1.92;1.00;;;5.90;99.90;;;;;;7331259;32;20589;-58
2021/12/05 12:53:41;;;;;;;5.68;1.10;;;5.90;99.90;;;;;;7364089;32;20197;-57
2021/12/05 12:57:42;;;;;;;6.15;1.50;;;5.90;99.90;;;;;;7376369;32;20135;-58
2021/12/05 13:10:08;;;;;;;4.07;0.95;;;5.90;99.90;;;;;;7381874;32;20129;-58
2021/12/05 13:14:10;;;;;;;1.40;0.90;;;5.80;99.90;;;;;;7382174;32;20523;-58
2021/12/05 13:18:13;;;;;;;2.03;0.90;;;5.90;99.90;;;;;;7376413;32;20481;-58
2021/12/05 13:22:14;;;;;;;2.00;0.80;;;6.00;99.90;;;;;;7381214;32;20571;-58
2021/12/05 13:26:25;;;;;;;2.42;0.90;;;6.00;99.90;;;;;;7376536;32;20703;-58
2021/12/05 13:30:34;;;;;;;2.30;0.70;;;6.00;99.90;;;;;;7378907;32;20257;-58
2021/12/05 13:34:41;;;;;;;2.25;0.95;;;6.00;99.90;;;;;;7375021;32;20100;-59
2021/12/05 13:38:43;;;;;;;4.28;0.90;;;6.00;99.90;;;;;;7379732;32;20118;-58
2021/12/05 13:43:01;;;;;;;2.87;1.05;;;6.00;99.90;;;;;;7377313;32;20149;-58
2021/12/05 13:47:29;;;;;;;1.92;0.90;;;5.90;99.90;;;;;;7371026;32;20095;-58
2021/12/05 13:51:32;;;;;;;3.12;1.10;;;5.80;99.90;;;;;;7366433;32;20103;-59
2021/12/05 13:55:55;;;;;;;2.70;1.08;;;5.80;99.90;;;;;;7379160;32;20484;-59
2021/12/05 13:59:57;;;;;;;2.83;1.20;;;5.80;99.90;;;;;;7381412;32;20511;-59
2021/12/05 14:04:23;;;;;;;3.67;1.10;;;5.80;99.90;;;;;;7368783;32;20145;-58
2021/12/05 14:08:25;;;;;;;3.53;1.12;;;5.80;99.90;;;;;;7370691;32;20099;-59
2021/12/05 14:12:29;;;;;;;2.15;1.20;;;5.80;99.90;;;;;;7374422;32;20228;-59
2021/12/05 14:16:35;;;;;;;3.05;1.50;;;5.70;99.90;;;;;;7379492;32;20545;-59
2021/12/05 14:20:37;;;;;;;4.57;1.87;;;5.70;99.90;;;;;;7369801;32;20268;-59
2021/12/05 14:24:43;;;;;;;4.05;1.37;;;5.70;99.90;;;;;;7362321;32;20190;-59
2021/12/05 14:29:05;;;;;;;2.92;1.30;;;5.70;99.90;;;;;;7364510;32;20106;-59
2021/12/05 14:33:07;;;;;;;3.80;1.30;;;5.70;99.90;;;;;;7364326;32;20260;-59
2021/12/05 14:37:13;;;;;;;2.60;1.20;;;5.60;99.90;;;;;;7367269;32;20294;-59
2021/12/05 14:41:29;;;;;;;2.00;1.00;;;5.60;99.90;;;;;;7365014;32;20634;-59
2021/12/05 14:45:36;;;;;;;2.87;1.20;;;5.60;99.90;;;;;;7371394;32;20424;-59
2021/12/05 14:49:45;;;;;;;2.65;1.30;;;5.60;99.90;;;;;;7364304;32;20608;-59
2021/12/05 14:53:47;;;;;;;3.42;1.65;;;5.60;99.90;;;;;;7364299;32;20260;-59
2021/12/05 14:58:04;;;;;;;6.10;1.55;;;5.50;99.90;;;;;;7365074;32;21292;-59
2021/12/05 15:02:07;;;;;;;3.90;1.48;;;5.50;99.90;;;;;;7366342;32;20440;-59
2021/12/05 15:06:09;;;;;;;4.43;1.90;;;5.40;99.90;;;;;;7365556;32;20575;-59
2021/12/05 15:10:18;;;;;;;5.97;2.55;;;5.30;99.90;;;;;;7365983;32;20214;-59
2021/12/05 15:14:21;;;;;;;6.25;3.60;;;5.40;99.90;;;;;;7366343;32;20222;-59
2021/12/05 15:18:28;;;;;;;8.82;3.62;;;5.30;99.90;;;;;;7367395;32;20595;-59
2021/12/05 15:22:30;;;;;;;3.67;2.20;;;5.20;99.90;;;;;;7367907;32;20142;-59
2021/12/05 15:26:32;;;;;;;3.28;1.90;;;5.10;99.90;;;;;;7365847;32;20182;-59
2021/12/05 15:30:41;;;;;;;3.90;2.00;;;5.00;99.90;;;;;;7362618;32;20222;-59
2021/12/05 15:34:42;;;;;;;6.97;3.55;;;5.00;99.90;;;;;;7361242;32;20241;-59
2021/12/05 15:38:44;;;;;;;6.37;2.50;;;5.00;99.90;;;;;;7362582;32;20091;-59
2021/12/05 15:42:46;;;;;;;4.87;1.90;;;5.00;99.90;;;;;;7365891;32;20490;-59
2021/12/05 15:46:47;;;;;;;5.45;2.92;;;5.00;99.90;;;;;;7363939;32;20253;-59
2021/12/05 15:50:52;;;;;;;6.70;2.10;;;5.00;99.90;;;;;;7363525;32;20103;-59
2021/12/05 15:54:55;;;;;;;5.80;3.22;;;4.90;99.90;;;;;;7364641;32;20126;-59
2021/12/05 15:59:02;;;;;;;6.30;3.58;;;4.90;99.90;;;;;;7361787;32;20220;-59
2021/12/05 16:03:12;;;;;;;5.00;1.98;;;4.80;99.90;;;;;;7375855;32;20191;-59
2021/12/05 16:07:16;;;;;;;5.18;2.05;;;4.80;99.90;;;;;;7375362;32;20130;-59
2021/12/05 16:11:21;;;;;;;8.27;5.20;;;4.90;99.90;;;;;;7377322;32;20157;-60
2021/12/05 16:15:27;;;;;;;9.88;8.13;;;4.80;99.90;;;;;;7375618;32;20179;-59
2021/12/05 16:19:30;;;;;;;3.80;2.30;;;4.90;99.90;;;;;;7368880;32;20153;-59
2021/12/05 16:23:52;;;;;;;3.42;2.17;;;5.00;99.90;;;;;;7374982;32;20154;-59
2021/12/05 16:28:02;;;;;;;3.90;2.30;;;4.90;99.90;;;;;;7373372;32;20129;-60
2021/12/05 16:32:03;;;;;;;6.25;3.47;;;4.80;99.90;;;;;;7375987;32;20137;-59
2021/12/05 16:36:06;;;;;;;4.80;1.90;;;4.80;99.90;;;;;;7369932;32;20133;-59
2021/12/05 16:40:08;;;;;;;5.97;1.90;;;4.80;99.90;;;;;;7375961;32;20234;-59
2021/12/05 16:44:16;;;;;;;5.03;2.42;;;4.80;99.90;;;;;;7383313;32;20125;-59
2021/12/05 16:48:18;;;;;;;6.18;2.45;;;4.80;99.90;;;;;;7383216;32;20134;-60
2021/12/05 16:52:33;;;;;;;4.37;1.98;;;4.80;99.90;;;;;;7369051;32;20212;-59
2021/12/05 16:56:41;;;;;;;5.53;2.17;;;4.80;99.90;;;;;;7383576;32;20118;-60
2021/12/05 17:00:49;;;;;;;5.75;2.90;;;4.80;99.90;;;;;;7379718;32;20107;-59
2021/12/05 17:05:05;;;;;;;5.50;2.65;;;4.80;99.90;;;;;;7377947;32;20160;-59
2021/12/05 17:09:12;;;;;;;3.60;2.15;;;4.80;99.90;;;;;;7380343;32;20566;-60
2021/12/05 17:13:22;;;;;;;6.50;2.10;;;4.80;99.90;;;;;;7380517;32;20450;-59
2021/12/05 17:17:33;;;;;;;3.92;2.53;;;4.80;99.90;;;;;;7382792;32;20193;-59
2021/12/05 17:21:48;;;;;;;4.07;2.00;;;4.90;99.90;;;;;;7379547;32;20126;-59
2021/12/05 17:25:54;;;;;;;4.55;2.05;;;4.90;99.90;;;;;;7379856;32;20669;-59
2021/12/05 17:29:56;;;;;;;6.32;1.67;;;4.90;99.90;;;;;;7381305;32;20130;-59
2021/12/05 17:34:02;;;;;;;4.10;1.62;;;4.90;99.90;;;;;;7380753;32;20196;-59
2021/12/05 17:38:04;;;;;;;4.82;2.33;;;4.90;99.90;;;;;;7377906;32;20198;-60
2021/12/05 17:42:13;;;;;;;8.73;2.50;;;4.80;99.90;;;;;;7377393;32;20559;-60
2021/12/05 17:46:15;;;;;;;5.95;2.60;;;4.90;99.90;;;;;;7382837;32;20099;-60
2021/12/05 17:50:20;;;;;;;3.30;2.22;;;4.80;99.90;;;;;;7375127;32;20515;-59
2021/12/05 17:54:32;;;;;;;4.07;2.40;;;4.80;99.90;;;;;;7381171;32;20099;-60
2021/12/05 17:59:04;;;;;;;3.65;1.95;;;4.80;99.90;;;;;;7384737;32;20099;-60
2021/12/05 18:03:00;;;;;;;4.35;1.92;;;4.70;99.90;;;;;;7382287;32;20193;-59
2021/12/05 18:07:02;;;;;;;4.22;1.52;;;4.60;99.90;;;;;;7382927;32;20274;-59
2021/12/05 18:11:11;;;;;;;4.15;2.33;;;4.60;99.90;;;;;;7380371;32;20129;-59
2021/12/05 18:15:20;;;;;;;7.47;2.35;;;4.50;99.90;;;;;;7374143;32;20099;-59
2021/12/05 18:19:22;;;;;;;3.72;2.35;;;4.50;99.90;;;;;;7374791;32;20121;-59
2021/12/05 18:23:24;;;;;;;5.60;2.55;;;4.50;99.90;;;;;;7377623;32;20129;-60
2021/12/05 18:27:25;;;;;;;4.60;2.42;;;4.40;99.90;;;;;;7366229;32;20142;-59
2021/12/05 18:31:28;;;;;;;8.43;5.35;;;4.30;99.90;;;;;;7375994;32;20507;-60
2021/12/05 18:35:32;;;;;;;6.62;2.58;;;4.30;99.90;;;;;;7369198;32;20269;-59
2021/12/05 18:39:39;;;;;;;5.90;2.20;;;4.30;99.90;;;;;;7367380;32;20126;-59
2021/12/05 18:43:42;;;;;;;7.93;2.37;;;4.20;99.90;;;;;;7382990;32;20098;-59
2021/12/05 18:47:45;;;;;;;4.03;2.00;;;4.30;99.90;;;;;;7374859;32;20570;-59
2021/12/05 18:51:47;;;;;;;3.70;2.20;;;4.20;99.90;;;;;;7374186;32;20193;-59
2021/12/05 18:55:50;;;;;;;8.85;3.62;;;4.20;99.90;;;;;;7381176;32;20208;-60
2021/12/05 19:00:09;;;;;;;10.00;6.28;;;4.20;99.90;;;;;;7376463;32;20110;-59
2021/12/05 19:13:00;;;;;;;8.00;3.08;;;4.10;99.90;;;;;;7380744;32;20548;-60
2021/12/05 19:17:11;;;;;;;6.47;3.62;;;4.10;99.90;;;;;;7377475;32;20499;-59
2021/12/05 19:21:13;;;;;;;8.38;4.72;;;4.10;99.90;;;;;;7374935;32;20116;-59
2021/12/05 19:25:26;;;;;;;5.10;3.78;;;4.10;99.90;;;;;;7370057;32;20521;-60
2021/12/05 19:29:31;;;;;;;7.75;3.58;;;4.10;99.90;;;;;;7373094;32;20149;-60
2021/12/05 19:33:33;;;;;;;6.03;2.83;;;4.10;99.90;;;;;;7381045;32;20134;-59
2021/12/05 19:37:37;;;;;;;6.45;3.05;;;4.00;99.90;;;;;;7373454;32;20139;-60
2021/12/05 19:41:39;;;;;;;5.47;3.17;;;4.00;99.90;;;;;;7376137;32;20174;-60
2021/12/05 19:45:41;;;;;;;7.15;4.12;;;4.00;99.90;;;;;;7381866;32;20125;-60
2021/12/05 19:49:43;;;;;;;9.02;4.65;;;4.00;99.90;;;;;;7369470;32;20129;-59
2021/12/05 19:53:46;;;;;;;8.65;4.80;;;4.00;99.90;;;;;;7379854;32;20517;-60
2021/12/05 19:57:48;;;;;;;7.43;5.07;;;4.00;99.90;;;;;;7379108;32;20121;-60
2021/12/05 20:01:52;;;;;;;8.80;5.00;;;4.00;99.90;;;;;;7379925;32;20154;-60
2021/12/05 20:05:54;;;;;;;6.20;4.68;;;4.00;99.90;;;;;;7375593;32;20864;-60
2021/12/05 20:09:56;;;;;;;8.45;5.22;;;4.00;99.90;;;;;;7378222;32;20111;-60
2021/12/05 20:13:58;;;;;;;10.60;6.28;;;4.00;99.90;;;;;;7378984;32;20557;-59
2021/12/05 20:18:05;;;;;;;14.80;8.55;;;4.00;99.90;;;;;;7382924;32;20091;-59
2021/12/05 20:22:08;;;;;;;17.33;11.45;;;4.00;99.90;;;;;;7382206;32;20121;-60
2021/12/05 20:26:16;;;;;;;17.45;11.40;;;4.00;99.90;;;;;;7382638;32;20440;-60
2021/12/05 20:30:21;;;;;;;12.02;7.87;;;4.00;99.90;;;;;;7382089;32;20129;-60
2021/12/05 20:34:24;;;;;;;9.07;5.93;;;3.90;99.90;;;;;;7380604;32;20111;-60
2021/12/05 20:38:26;;;;;;;6.82;5.10;;;3.90;99.90;;;;;;7374769;32;20551;-60
2021/12/05 20:42:27;;;;;;;8.65;6.45;;;3.90;99.90;;;;;;7381136;32;20103;-59
2021/12/05 20:46:29;;;;;;;8.75;6.43;;;3.90;99.90;;;;;;7379611;32;20672;-59
2021/12/05 20:50:32;;;;;;;9.18;5.95;;;3.80;99.90;;;;;;7381322;32;20155;-60
2021/12/05 20:54:35;;;;;;;8.57;6.53;;;3.80;99.90;;;;;;7371560;32;20110;-59
2021/12/05 20:58:37;;;;;;;12.68;6.20;;;3.80;99.90;;;;;;7368033;32;20228;-59
2021/12/05 21:02:41;;;;;;;8.90;6.37;;;3.80;99.90;;;;;;7375112;32;20499;-60
2021/12/05 21:06:43;;;;;;;8.10;6.22;;;3.80;99.90;;;;;;7374887;32;20303;-59
2021/12/05 21:10:52;;;;;;;11.23;7.00;;;3.80;99.90;;;;;;7378621;32;20103;-59
2021/12/05 21:14:54;;;;;;;10.93;7.05;;;3.80;99.90;;;;;;7371729;32;20111;-59
2021/12/05 21:18:57;;;;;;;10.73;6.90;;;3.90;99.90;;;;;;7382098;32;20244;-59
2021/12/05 21:22:58;;;;;;;9.82;7.37;;;3.90;99.90;;;;;;7380798;32;20331;-60
2021/12/05 21:27:01;;;;;;;10.57;7.57;;;3.80;99.90;;;;;;7378173;32;20137;-59
2021/12/05 21:31:04;;;;;;;12.70;7.93;;;3.90;99.90;;;;;;7385158;32;20692;-59
2021/12/05 21:35:07;;;;;;;9.20;6.68;;;3.80;99.90;;;;;;7385030;32;20111;-59
2021/12/05 21:39:11;;;;;;;12.18;7.78;;;3.80;99.90;;;;;;7384323;32;20178;-59
2021/12/05 21:43:13;;;;;;;8.20;6.60;;;3.80;99.90;;;;;;7383416;32;20092;-59
2021/12/05 21:47:15;;;;;;;13.62;6.15;;;3.90;99.90;;;;;;7383678;32;20098;-59
2021/12/05 21:51:19;;;;;;;12.32;6.78;;;3.90;99.90;;;;;;7379443;32;20107;-60
2021/12/05 21:55:22;;;;;;;10.85;6.93;;;3.90;99.90;;;;;;7380238;32;20459;-59
2021/12/05 21:59:24;;;;;;;8.32;6.45;;;3.80;99.90;;;;;;7381266;32;20104;-58
2021/12/05 22:03:26;;;;;;;8.98;6.78;;;3.80;99.90;;;;;;7375594;32;20186;-58
2021/12/05 22:07:29;;;;;;;10.90;7.37;;;3.80;99.90;;;;;;7373706;32;20206;-58
2021/12/05 22:11:31;;;;;;;11.95;7.10;;;3.80;99.90;;;;;;7380123;32;20128;-58
2021/12/05 22:15:35;;;;;;;10.00;6.25;;;3.80;99.90;;;;;;7380646;32;20099;-59
2021/12/05 22:19:43;;;;;;;9.68;6.37;;;3.70;99.90;;;;;;7373899;32;20114;-59
2021/12/05 22:23:56;;;;;;;9.20;6.80;;;3.70;99.90;;;;;;7375861;32;20099;-59
2021/12/05 22:27:59;;;;;;;12.60;6.97;;;3.70;99.90;;;;;;7374669;32;20107;-60
2021/12/05 22:32:01;;;;;;;12.88;6.57;;;3.70;99.90;;;;;;7379375;32;20099;-63
2021/12/05 22:36:04;;;;;;;7.70;4.82;;;3.70;99.90;;;;;;7372541;32;20110;-59
2021/12/05 22:40:08;;;;;;;7.80;5.47;;;3.70;99.90;;;;;;7372348;32;20140;-60
2021/12/05 22:44:10;;;;;;;9.02;4.12;;;3.60;99.90;;;;;;7377942;32;20107;-58
2021/12/05 22:48:12;;;;;;;6.72;3.92;;;3.70;99.90;;;;;;7381273;32;20149;-61
2021/12/05 22:52:14;;;;;;;7.05;4.70;;;3.70;99.90;;;;;;7377247;32;20121;-59
2021/12/05 22:56:16;;;;;;;7.20;5.30;;;3.70;99.90;;;;;;7381083;32;20107;-59
2021/12/05 23:00:36;;;;;;;11.60;5.70;;;3.80;99.90;;;;;;7380682;32;20463;-59
2021/12/05 23:04:38;;;;;;;11.10;6.12;;;3.80;99.90;;;;;;7378735;32;20103;-58
2021/12/05 23:08:40;;;;;;;8.85;5.25;;;3.80;99.90;;;;;;7375356;32;20729;-59
2021/12/05 23:12:42;;;;;;;8.55;5.28;;;3.80;99.90;;;;;;7377191;32;20107;-59
2021/12/05 23:16:43;;;;;;;9.52;5.35;;;3.80;99.90;;;;;;7381821;32;20479;-59
2021/12/05 23:20:46;;;;;;;8.05;4.93;;;3.80;99.90;;;;;;7372397;32;20117;-59
2021/12/05 23:24:47;;;;;;;8.80;5.37;;;3.80;99.90;;;;;;7379246;32;20098;-59
2021/12/05 23:28:50;;;;;;;7.55;5.18;;;3.80;99.90;;;;;;7380923;32;20202;-59
2021/12/05 23:32:54;;;;;;;8.60;6.05;;;3.80;99.90;;;;;;7378476;32;20640;-59
2021/12/05 23:36:55;;;;;;;7.28;5.43;;;3.70;99.90;;;;;;7380029;32;20126;-58
2021/12/05 23:40:57;;;;;;;9.38;5.87;;;3.80;99.90;;;;;;7370674;32;20133;-59
2021/12/05 23:44:59;;;;;;;8.23;5.32;;;3.70;99.90;;;;;;7379490;32;20190;-59
2021/12/05 23:49:03;;;;;;;8.07;5.25;;;3.80;99.90;;;;;;7379685;32;20153;-58
2021/12/05 23:53:07;;;;;;;9.73;5.90;;;3.80;99.90;;;;;;7378855;32;20468;-58
2021/12/05 23:57:09;;;;;;;6.45;4.68;;;3.70;99.90;;;;;;7376332;32;20193;-58
